Terminal Aerodrome Forecast
Issued by NWS Sioux Falls, SD

Home | Current Version | Previous Version | Text Only | Print | Product List | Glossary Off
Versions: 1 2 3 4 5 6 7 8 9 10 11 12 13 14 15 16 17

000
FTUS43 KFSD 131120
TAFSUX
TAF
KSUX 131120Z 1312/1412 32021G29KT P6SM BKN100 WS010/32050KT
     FM131300 32023G31KT P6SM BKN100
     FM131700 33025G38KT P6SM BKN025
     FM132300 34017G25KT P6SM BKN035
     FM140200 34011KT P6SM BKN040
     FM140700 32006KT P6SM BKN060=

USA.gov is the U.S. government's official web portal to all federal, state and local government web resources and services.